sensor_id;sensor_type;location;lat;lon;timestamp;pressure;altitude;pressure_sealevel;temperature;humidity
113;BME280;45999;48.808;9.182;2024-01-16T00:00:57;97520.97;;;-0.28;100.00
113;BME280;45999;48.808;9.182;2024-01-16T00:03:23;97514.94;;;-0.29;100.00
113;BME280;45999;48.808;9.182;2024-01-16T00:05:49;97517.19;;;-0.26;100.00
113;BME280;45999;48.808;9.182;2024-01-16T00:08:16;97513.47;;;-0.31;100.00
113;BME280;45999;48.808;9.182;2024-01-16T00:10:42;97513.63;;;-0.25;100.00
113;BME280;45999;48.808;9.182;2024-01-16T00:13:09;97513.47;;;-0.31;100.00
113;BME280;45999;48.808;9.182;2024-01-16T00:15:35;97507.09;;;-0.37;100.00
113;BME280;45999;48.808;9.182;2024-01-16T00:18:01;97510.34;;;-0.35;100.00
113;BME280;45999;48.808;9.182;2024-01-16T00:20:28;97508.09;;;-0.46;100.00
113;BME280;45999;48.808;9.182;2024-01-16T00:22:54;97511.69;;;-0.39;100.00
113;BME280;45999;48.808;9.182;2024-01-16T00:25:21;97512.00;;;-0.50;100.00
113;BME280;45999;48.808;9.182;2024-01-16T00:27:48;97516.75;;;-0.45;100.00
113;BME280;45999;48.808;9.182;2024-01-16T00:30:14;97523.59;;;-0.44;100.00
113;BME280;45999;48.808;9.182;2024-01-16T00:32:41;97515.44;;;-0.49;100.00
113;BME280;45999;48.808;9.182;2024-01-16T00:35:07;97517.69;;;-0.46;100.00
113;BME280;45999;48.808;9.182;2024-01-16T00:37:36;97523.44;;;-0.51;100.00
113;BME280;45999;48.808;9.182;2024-01-16T00:40:03;97513.00;;;-0.43;100.00
113;BME280;45999;48.808;9.182;2024-01-16T00:42:31;97514.59;;;-0.50;100.00
113;BME280;45999;48.808;9.182;2024-01-16T00:44:58;97513.94;;;-0.44;100.00
113;BME280;45999;48.808;9.182;2024-01-16T00:47:24;97505.63;;;-0.47;100.00
113;BME280;45999;48.808;9.182;2024-01-16T00:49:51;97509.06;;;-0.55;100.00
113;BME280;45999;48.808;9.182;2024-01-16T00:52:17;97502.84;;;-0.54;100.00
113;BME280;45999;48.808;9.182;2024-01-16T00:54:44;97509.06;;;-0.55;100.00
113;BME280;45999;48.808;9.182;2024-01-16T00:57:11;97501.09;;;-0.45;100.00
113;BME280;45999;48.808;9.182;2024-01-16T00:59:37;97503.50;;;-0.44;100.00
113;BME280;45999;48.808;9.182;2024-01-16T01:02:03;97497.97;;;-0.41;100.00
113;BME280;45999;48.808;9.182;2024-01-16T01:04:32;97500.56;;;-0.33;100.00
113;BME280;45999;48.808;9.182;2024-01-16T01:06:59;97497.50;;;-0.36;100.00
113;BME280;45999;48.808;9.182;2024-01-16T01:09:25;97500.91;;;-0.36;100.00
113;BME280;45999;48.808;9.182;2024-01-16T01:11:51;97511.34;;;-0.36;100.00
113;BME280;45999;48.808;9.182;2024-01-16T01:14:18;97509.56;;;-0.35;100.00
113;BME280;45999;48.808;9.182;2024-01-16T01:16:44;97503.50;;;-0.28;100.00
113;BME280;45999;48.808;9.182;2024-01-16T01:19:10;97512.97;;;-0.27;100.00
113;BME280;45999;48.808;9.182;2024-01-16T01:21:37;97502.03;;;-0.30;100.00
113;BME280;45999;48.808;9.182;2024-01-16T01:24:04;97507.75;;;-0.35;100.00
113;BME280;45999;48.808;9.182;2024-01-16T01:26:30;97516.41;;;-0.42;100.00
113;BME280;45999;48.808;9.182;2024-01-16T01:28:57;97515.59;;;-0.43;100.00
113;BME280;45999;48.808;9.182;2024-01-16T01:31:24;97515.59;;;-0.43;100.00
113;BME280;45999;48.808;9.182;2024-01-16T01:33:50;97526.69;;;-0.49;100.00
113;BME280;45999;48.808;9.182;2024-01-16T01:36:17;97521.13;;;-0.54;100.00
113;BME280;45999;48.808;9.182;2024-01-16T01:38:43;97528.16;;;-0.46;100.00
113;BME280;45999;48.808;9.182;2024-01-16T01:41:09;97526.84;;;-0.42;100.00
113;BME280;45999;48.808;9.182;2024-01-16T01:43:37;97531.75;;;-0.47;100.00
113;BME280;45999;48.808;9.182;2024-01-16T01:48:36;97532.75;;;-0.40;100.00
113;BME280;45999;48.808;9.182;2024-01-16T01:51:03;97541.53;;;-0.49;100.00
113;BME280;45999;48.808;9.182;2024-01-16T01:53:30;97544.31;;;-0.43;100.00
113;BME280;45999;48.808;9.182;2024-01-16T01:55:57;97555.72;;;-0.44;100.00
113;BME280;45999;48.808;9.182;2024-01-16T01:58:23;97550.03;;;-0.39;100.00
113;BME280;45999;48.808;9.182;2024-01-16T02:00:50;97543.50;;;-0.43;100.00
113;BME280;45999;48.808;9.182;2024-01-16T02:03:17;97551.50;;;-0.37;100.00
113;BME280;45999;48.808;9.182;2024-01-16T02:05:44;97548.22;;;-0.31;100.00
113;BME280;45999;48.808;9.182;2024-01-16T02:08:11;97546.59;;;-0.32;100.00
113;BME280;45999;48.808;9.182;2024-01-16T02:10:38;97548.06;;;-0.37;100.00
113;BME280;45999;48.808;9.182;2024-01-16T02:13:05;97543.97;;;-0.40;100.00
113;BME280;45999;48.808;9.182;2024-01-16T02:15:32;97549.88;;;-0.46;100.00
113;BME280;45999;48.808;9.182;2024-01-16T02:17:58;97556.88;;;-0.46;100.00
113;BME280;45999;48.808;9.182;2024-01-16T02:20:25;97563.25;;;-0.57;100.00
113;BME280;45999;48.808;9.182;2024-01-16T02:22:53;97560.94;;;-0.68;100.00
113;BME280;45999;48.808;9.182;2024-01-16T02:25:21;97556.84;;;-0.70;100.00
113;BME280;45999;48.808;9.182;2024-01-16T02:27:48;97558.66;;;-0.79;100.00
113;BME280;45999;48.808;9.182;2024-01-16T02:30:14;97552.44;;;-0.78;100.00
113;BME280;45999;48.808;9.182;2024-01-16T02:32:41;97550.13;;;-0.81;100.00
113;BME280;45999;48.808;9.182;2024-01-16T02:35:08;97552.91;;;-0.82;100.00
113;BME280;45999;48.808;9.182;2024-01-16T02:37:35;97556.16;;;-0.88;100.00
113;BME280;45999;48.808;9.182;2024-01-16T02:40:01;97540.31;;;-1.03;100.00
113;BME280;45999;48.808;9.182;2024-01-16T02:42:32;97553.19;;;-1.01;100.00
113;BME280;45999;48.808;9.182;2024-01-16T02:44:58;97552.22;;;-1.08;100.00
113;BME280;45999;48.808;9.182;2024-01-16T02:47:25;97554.16;;;-1.10;100.00
113;BME280;45999;48.808;9.182;2024-01-16T02:49:51;97551.72;;;-1.04;100.00
113;BME280;45999;48.808;9.182;2024-01-16T02:52:17;97554.81;;;-1.08;100.00
113;BME280;45999;48.808;9.182;2024-01-16T02:54:44;97554.97;;;-1.10;100.00
113;BME280;45999;48.808;9.182;2024-01-16T02:57:10;97556.13;;;-1.12;100.00
113;BME280;45999;48.808;9.182;2024-01-16T02:59:36;97565.88;;;-1.14;100.00
113;BME280;45999;48.808;9.182;2024-01-16T03:02:03;97559.69;;;-1.13;100.00
113;BME280;45999;48.808;9.182;2024-01-16T03:04:29;97567.34;;;-1.20;100.00
113;BME280;45999;48.808;9.182;2024-01-16T03:06:56;97571.22;;;-1.24;100.00
113;BME280;45999;48.808;9.182;2024-01-16T03:09:22;97567.94;;;-1.26;100.00
113;BME280;45999;48.808;9.182;2024-01-16T03:11:49;97570.25;;;-1.23;100.00
113;BME280;45999;48.808;9.182;2024-01-16T03:14:15;97563.72;;;-1.27;100.00
113;BME280;45999;48.808;9.182;2024-01-16T03:16:41;97569.88;;;-1.36;100.00
113;BME280;45999;48.808;9.182;2024-01-16T03:19:08;97558.81;;;-1.30;100.00
113;BME280;45999;48.808;9.182;2024-01-16T03:21:34;97559.47;;;-1.28;100.00
113;BME280;45999;48.808;9.182;2024-01-16T03:24:00;97556.53;;;-1.33;100.00
113;BME280;45999;48.808;9.182;2024-01-16T03:26:27;97561.22;;;-1.36;100.00
113;BME280;45999;48.808;9.182;2024-01-16T03:28:53;97562.09;;;-1.28;100.00
113;BME280;45999;48.808;9.182;2024-01-16T03:31:19;97559.75;;;-1.39;100.00
113;BME280;45999;48.808;9.182;2024-01-16T03:33:46;97570.34;;;-1.40;100.00
113;BME280;45999;48.808;9.182;2024-01-16T03:36:12;97568.53;;;-1.40;100.00
113;BME280;45999;48.808;9.182;2024-01-16T03:38:42;97573.91;;;-1.41;100.00
113;BME280;45999;48.808;9.182;2024-01-16T03:41:08;97570.34;;;-1.40;100.00
113;BME280;45999;48.808;9.182;2024-01-16T03:43:37;97570.66;;;-1.43;100.00
113;BME280;45999;48.808;9.182;2024-01-16T03:46:03;97569.97;;;-1.45;100.00
113;BME280;45999;48.808;9.182;2024-01-16T03:48:30;97574.25;;;-1.44;100.00
113;BME280;45999;48.808;9.182;2024-01-16T03:50:56;97566.38;;;-1.52;100.00
113;BME280;45999;48.808;9.182;2024-01-16T03:53:23;97560.53;;;-1.46;100.00
113;BME280;45999;48.808;9.182;2024-01-16T03:55:50;97555.94;;;-1.52;100.00
113;BME280;45999;48.808;9.182;2024-01-16T03:58:17;97549.69;;;-1.67;100.00
113;BME280;45999;48.808;9.182;2024-01-16T04:00:44;97558.66;;;-1.70;100.00
113;BME280;45999;48.808;9.182;2024-01-16T04:03:10;97555.91;;;-1.60;100.00
113;BME280;45999;48.808;9.182;2024-01-16T04:05:38;97559.66;;;-1.63;100.00
113;BME280;45999;48.808;9.182;2024-01-16T04:08:04;97551.81;;;-1.63;100.00
113;BME280;45999;48.808;9.182;2024-01-16T04:10:31;97554.78;;;-1.58;100.00
113;BME280;45999;48.808;9.182;2024-01-16T04:13:00;97555.13;;;-1.61;100.00
113;BME280;45999;48.808;9.182;2024-01-16T04:15:26;97548.09;;;-1.60;100.00
113;BME280;45999;48.808;9.182;2024-01-16T04:17:53;97544.63;;;-1.69;100.00
113;BME280;45999;48.808;9.182;2024-01-16T04:20:19;97551.13;;;-1.73;100.00
113;BME280;45999;48.808;9.182;2024-01-16T04:22:46;97545.44;;;-1.68;100.00
113;BME280;45999;48.808;9.182;2024-01-16T04:25:12;97548.69;;;-1.74;100.00
113;BME280;45999;48.808;9.182;2024-01-16T04:27:39;97552.91;;;-1.73;100.00
113;BME280;45999;48.808;9.182;2024-01-16T04:30:06;97546.22;;;-1.76;100.00
113;BME280;45999;48.808;9.182;2024-01-16T04:32:33;97545.09;;;-1.73;100.00
113;BME280;45999;48.808;9.182;2024-01-16T04:34:59;97547.91;;;-1.67;100.00
113;BME280;45999;48.808;9.182;2024-01-16T04:37:26;97553.06;;;-1.75;100.00
113;BME280;45999;48.808;9.182;2024-01-16T04:39:52;97546.25;;;-1.68;100.00
113;BME280;45999;48.808;9.182;2024-01-16T04:42:19;97551.44;;;-1.76;100.00
113;BME280;45999;48.808;9.182;2024-01-16T04:44:45;97548.38;;;-1.71;100.00
113;BME280;45999;48.808;9.182;2024-01-16T04:47:12;97548.81;;;-1.84;100.00
113;BME280;45999;48.808;9.182;2024-01-16T04:49:38;97547.91;;;-1.67;100.00
113;BME280;45999;48.808;9.182;2024-01-16T04:52:05;97531.47;;;-1.67;100.00
113;BME280;45999;48.808;9.182;2024-01-16T04:54:32;97540.50;;;-1.79;100.00
113;BME280;45999;48.808;9.182;2024-01-16T04:56:58;97536.47;;;-1.74;100.00
113;BME280;45999;48.808;9.182;2024-01-16T04:59:25;97536.47;;;-1.74;100.00
113;BME280;45999;48.808;9.182;2024-01-16T05:01:51;97536.78;;;-1.77;100.00
113;BME280;45999;48.808;9.182;2024-01-16T05:04:18;97539.47;;;-1.86;100.00
113;BME280;45999;48.808;9.182;2024-01-16T05:06:44;97549.00;;;-2.03;100.00
113;BME280;45999;48.808;9.182;2024-01-16T05:09:10;97545.72;;;-2.05;100.00
113;BME280;45999;48.808;9.182;2024-01-16T05:11:37;97553.41;;;-2.21;100.00
113;BME280;45999;48.808;9.182;2024-01-16T05:14:03;97552.91;;;-2.24;100.00
113;BME280;45999;48.808;9.182;2024-01-16T05:16:30;97552.72;;;-2.31;100.00
113;BME280;45999;48.808;9.182;2024-01-16T05:18:56;97554.19;;;-2.28;100.00
113;BME280;45999;48.808;9.182;2024-01-16T05:21:22;97547.78;;;-2.34;100.00
113;BME280;45999;48.808;9.182;2024-01-16T05:23:49;97541.16;;;-2.28;100.00
113;BME280;45999;48.808;9.182;2024-01-16T05:26:15;97539.19;;;-2.34;100.00
113;BME280;45999;48.808;9.182;2024-01-16T05:28:41;97538.81;;;-2.39;100.00
113;BME280;45999;48.808;9.182;2024-01-16T05:31:08;97529.81;;;-2.45;100.00
113;BME280;45999;48.808;9.182;2024-01-16T05:33:34;97532.50;;;-2.37;100.00
113;BME280;45999;48.808;9.182;2024-01-16T05:36:00;97521.03;;;-2.26;100.00
113;BME280;45999;48.808;9.182;2024-01-16T05:38:27;97521.63;;;-2.07;100.00
113;BME280;45999;48.808;9.182;2024-01-16T05:40:54;97506.41;;;-1.94;100.00
113;BME280;45999;48.808;9.182;2024-01-16T05:43:20;97514.75;;;-1.90;100.00
113;BME280;45999;48.808;9.182;2024-01-16T05:45:46;97523.09;;;-2.04;100.00
113;BME280;45999;48.808;9.182;2024-01-16T05:48:13;97514.53;;;-1.97;100.00
113;BME280;45999;48.808;9.182;2024-01-16T05:50:39;97520.31;;;-2.11;100.00
113;BME280;45999;48.808;9.182;2024-01-16T05:53:05;97516.53;;;-2.16;100.00
113;BME280;45999;48.808;9.182;2024-01-16T05:55:32;97523.66;;;-2.18;100.00
113;BME280;45999;48.808;9.182;2024-01-16T05:58:00;97521.59;;;-2.15;100.00
113;BME280;45999;48.808;9.182;2024-01-16T06:00:26;97516.31;;;-2.23;100.00
113;BME280;45999;48.808;9.182;2024-01-16T06:02:53;97515.19;;;-2.20;100.00
113;BME280;45999;48.808;9.182;2024-01-16T06:05:19;97519.00;;;-2.15;100.00
113;BME280;45999;48.808;9.182;2024-01-16T06:07:46;97513.44;;;-2.20;100.00
113;BME280;45999;48.808;9.182;2024-01-16T06:10:12;97514.03;;;-2.26;100.00
113;BME280;45999;48.808;9.182;2024-01-16T06:12:39;97518.44;;;-2.18;100.00
113;BME280;45999;48.808;9.182;2024-01-16T06:15:06;97513.72;;;-2.23;100.00
113;BME280;45999;48.808;9.182;2024-01-16T06:17:33;97511.94;;;-2.22;100.00
113;BME280;45999;48.808;9.182;2024-01-16T06:20:00;97519.50;;;-2.11;100.00
113;BME280;45999;48.808;9.182;2024-01-16T06:22:26;97521.63;;;-2.07;100.00
113;BME280;45999;48.808;9.182;2024-01-16T06:24:52;97519.34;;;-2.10;100.00
113;BME280;45999;48.808;9.182;2024-01-16T06:27:19;97509.94;;;-2.28;100.00
113;BME280;45999;48.808;9.182;2024-01-16T06:29:45;97507.19;;;-2.27;100.00
113;BME280;45999;48.808;9.182;2024-01-16T06:32:12;97509.28;;;-2.30;100.00
113;BME280;45999;48.808;9.182;2024-01-16T06:34:38;97511.25;;;-2.24;100.00
113;BME280;45999;48.808;9.182;2024-01-16T06:37:05;97510.28;;;-2.23;100.00
113;BME280;45999;48.808;9.182;2024-01-16T06:39:31;97515.28;;;-2.30;100.00
113;BME280;45999;48.808;9.182;2024-01-16T06:41:58;97521.81;;;-2.26;100.00
113;BME280;45999;48.808;9.182;2024-01-16T06:44:24;97518.25;;;-2.25;100.00
113;BME280;45999;48.808;9.182;2024-01-16T06:46:51;97516.63;;;-2.26;100.00
113;BME280;45999;48.808;9.182;2024-01-16T06:49:17;97512.81;;;-2.14;100.00
113;BME280;45999;48.808;9.182;2024-01-16T06:51:44;97517.72;;;-2.11;100.00
113;BME280;45999;48.808;9.182;2024-01-16T06:54:10;97516.13;;;-2.04;100.00
113;BME280;45999;48.808;9.182;2024-01-16T06:56:36;97523.09;;;-2.04;100.00
113;BME280;45999;48.808;9.182;2024-01-16T06:59:03;97527.84;;;-2.00;100.00
113;BME280;45999;48.808;9.182;2024-01-16T07:01:29;97516.78;;;-2.02;100.00
113;BME280;45999;48.808;9.182;2024-01-16T07:03:55;97518.78;;;-1.96;100.00
113;BME280;45999;48.808;9.182;2024-01-16T07:06:22;97518.56;;;-2.02;100.00
113;BME280;45999;48.808;9.182;2024-01-16T07:08:48;97536.66;;;-2.01;100.00
113;BME280;45999;48.808;9.182;2024-01-16T07:11:14;97531.75;;;-2.04;100.00
113;BME280;45999;48.808;9.182;2024-01-16T07:13:41;97525.91;;;-1.98;100.00
113;BME280;45999;48.808;9.182;2024-01-16T07:16:10;97529.34;;;-1.97;100.00
113;BME280;45999;48.808;9.182;2024-01-16T07:18:38;97524.75;;;-2.03;100.00
113;BME280;45999;48.808;9.182;2024-01-16T07:21:16;97530.13;;;-2.05;100.00
113;BME280;45999;48.808;9.182;2024-01-16T07:23:42;97520.81;;;-2.07;100.00
113;BME280;45999;48.808;9.182;2024-01-16T07:26:08;97528.84;;;-2.01;100.00
113;BME280;45999;48.808;9.182;2024-01-16T07:28:35;97521.53;;;-1.97;100.00
113;BME280;45999;48.808;9.182;2024-01-16T07:31:01;97530.13;;;-2.05;100.00
113;BME280;45999;48.808;9.182;2024-01-16T07:33:27;97522.34;;;-1.97;100.00
113;BME280;45999;48.808;9.182;2024-01-16T07:35:54;97526.88;;;-1.99;100.00
113;BME280;45999;48.808;9.182;2024-01-16T07:38:20;97521.38;;;-1.96;100.00
113;BME280;45999;48.808;9.182;2024-01-16T07:40:47;97529.19;;;-1.96;100.00
113;BME280;45999;48.808;9.182;2024-01-16T07:43:14;97519.28;;;-1.92;100.00
113;BME280;45999;48.808;9.182;2024-01-16T07:45:40;97521.88;;;-1.92;100.00
113;BME280;45999;48.808;9.182;2024-01-16T07:48:06;97520.59;;;-1.88;100.00
113;BME280;45999;48.808;9.182;2024-01-16T07:50:33;97521.44;;;-1.80;100.00
113;BME280;45999;48.808;9.182;2024-01-16T07:52:59;97516.59;;;-1.75;100.00
113;BME280;45999;48.808;9.182;2024-01-16T07:55:26;97518.25;;;-1.66;100.00
113;BME280;45999;48.808;9.182;2024-01-16T07:57:53;97516.13;;;-1.70;100.00
113;BME280;45999;48.808;9.182;2024-01-16T08:00:20;97517.94;;;-1.63;100.00
113;BME280;45999;48.808;9.182;2024-01-16T08:02:47;97519.28;;;-1.59;100.00
113;BME280;45999;48.808;9.182;2024-01-16T08:05:14;97523.06;;;-1.53;100.00
113;BME280;45999;48.808;9.182;2024-01-16T08:07:42;97522.22;;;-1.54;100.00
113;BME280;45999;48.808;9.182;2024-01-16T08:10:09;97522.06;;;-1.52;100.00
113;BME280;45999;48.808;9.182;2024-01-16T08:12:36;97522.31;;;-1.38;100.00
113;BME280;45999;48.808;9.182;2024-01-16T08:15:03;97521.47;;;-1.38;100.00
113;BME280;45999;48.808;9.182;2024-01-16T08:17:30;97517.75;;;-1.28;100.00
113;BME280;45999;48.808;9.182;2024-01-16T08:19:56;97520.22;;;-1.26;100.00
113;BME280;45999;48.808;9.182;2024-01-16T08:22:22;97517.59;;;-1.18;100.00
113;BME280;45999;48.808;9.182;2024-01-16T08:24:49;97515.53;;;-1.15;100.00
113;BME280;45999;48.808;9.182;2024-01-16T08:27:15;97522.22;;;-1.04;100.00
113;BME280;45999;48.808;9.182;2024-01-16T08:29:42;97524.66;;;-1.11;100.00
113;BME280;45999;48.808;9.182;2024-01-16T08:32:09;97529.88;;;-1.03;100.00
113;BME280;45999;48.808;9.182;2024-01-16T08:34:35;97524.16;;;-1.06;100.00
113;BME280;45999;48.808;9.182;2024-01-16T08:37:02;97535.75;;;-1.01;100.00
113;BME280;45999;48.808;9.182;2024-01-16T08:39:29;97528.75;;;-1.00;100.00
113;BME280;45999;48.808;9.182;2024-01-16T08:41:58;97534.78;;;-1.00;100.00
113;BME280;45999;48.808;9.182;2024-01-16T08:44:24;97536.22;;;-1.05;100.00
113;BME280;45999;48.808;9.182;2024-01-16T08:46:51;97535.44;;;-0.90;100.00
113;BME280;45999;48.808;9.182;2024-01-16T08:49:17;97535.81;;;-0.77;100.00
113;BME280;45999;48.808;9.182;2024-01-16T08:51:43;97541.03;;;-0.77;100.00
113;BME280;45999;48.808;9.182;2024-01-16T08:54:10;97549.53;;;-0.75;100.00
113;BME280;45999;48.808;9.182;2024-01-16T08:56:37;97551.63;;;-0.70;100.00
113;BME280;45999;48.808;9.182;2024-01-16T08:59:04;97560.44;;;-0.71;100.00
113;BME280;45999;48.808;9.182;2024-01-16T09:01:30;97553.09;;;-0.68;100.00
113;BME280;45999;48.808;9.182;2024-01-16T09:03:56;97561.13;;;-0.53;100.00
113;BME280;45999;48.808;9.182;2024-01-16T09:06:24;97557.06;;;-0.48;100.00
113;BME280;45999;48.808;9.182;2024-01-16T09:08:50;97550.19;;;-0.33;100.00
113;BME280;45999;48.808;9.182;2024-01-16T09:11:17;97554.13;;;-0.29;100.00
113;BME280;45999;48.808;9.182;2024-01-16T09:13:43;97555.41;;;-0.25;100.00
113;BME280;45999;48.808;9.182;2024-01-16T09:16:09;97544.94;;;-0.01;100.00
113;BME280;45999;48.808;9.182;2024-01-16T09:18:36;97550.84;;;-0.07;100.00
113;BME280;45999;48.808;9.182;2024-01-16T09:21:02;97546.41;;;-0.14;100.00
113;BME280;45999;48.808;9.182;2024-01-16T09:23:29;97546.09;;;0.05;100.00
113;BME280;45999;48.808;9.182;2024-01-16T09:25:56;97550.81;;;0.01;100.00
113;BME280;45999;48.808;9.182;2024-01-16T09:28:22;97555.03;;;0.10;100.00
113;BME280;45999;48.808;9.182;2024-01-16T09:30:49;97552.94;;;0.14;100.00
113;BME280;45999;48.808;9.182;2024-01-16T09:33:16;97560.09;;;0.28;100.00
113;BME280;45999;48.808;9.182;2024-01-16T09:35:48;97562.16;;;0.49;100.00
113;BME280;45999;48.808;9.182;2024-01-16T09:38:14;97559.84;;;0.54;100.00
113;BME280;45999;48.808;9.182;2024-01-16T09:40:41;97557.53;;;0.97;100.00
113;BME280;45999;48.808;9.182;2024-01-16T09:43:09;97556.38;;;1.00;100.00
113;BME280;45999;48.808;9.182;2024-01-16T09:45:37;97561.94;;;0.97;100.00
113;BME280;45999;48.808;9.182;2024-01-16T09:48:08;97561.81;;;0.90;100.00
113;BME280;45999;48.808;9.182;2024-01-16T09:50:34;97565.47;;;1.42;100.00
113;BME280;45999;48.808;9.182;2024-01-16T09:53:01;97557.97;;;1.09;100.00
113;BME280;45999;48.808;9.182;2024-01-16T09:55:28;97550.78;;;1.33;99.11
113;BME280;45999;48.808;9.182;2024-01-16T09:57:54;97558.19;;;1.30;99.58
113;BME280;45999;48.808;9.182;2024-01-16T10:00:22;97554.47;;;1.16;99.86
113;BME280;45999;48.808;9.182;2024-01-16T10:02:50;97551.66;;;1.26;100.00
113;BME280;45999;48.808;9.182;2024-01-16T10:05:17;97544.69;;;1.41;99.97
113;BME280;45999;48.808;9.182;2024-01-16T10:07:43;97556.53;;;1.29;100.00
113;BME280;45999;48.808;9.182;2024-01-16T10:10:10;97553.06;;;1.59;100.00
113;BME280;45999;48.808;9.182;2024-01-16T10:12:38;97544.59;;;1.94;93.52
113;BME280;45999;48.808;9.182;2024-01-16T10:15:08;97543.09;;;1.77;95.32
113;BME280;45999;48.808;9.182;2024-01-16T10:17:38;97541.25;;;1.63;98.75
113;BME280;45999;48.808;9.182;2024-01-16T10:20:06;97539.00;;;2.11;96.80
113;BME280;45999;48.808;9.182;2024-01-16T10:22:39;97532.13;;;2.10;95.95
113;BME280;45999;48.808;9.182;2024-01-16T10:25:09;97520.13;;;2.16;96.85
113;BME280;45999;48.808;9.182;2024-01-16T10:27:38;97524.56;;;1.78;97.60
113;BME280;45999;48.808;9.182;2024-01-16T10:30:05;97515.09;;;1.77;96.84
113;BME280;45999;48.808;9.182;2024-01-16T10:32:37;97512.81;;;1.74;97.91
113;BME280;45999;48.808;9.182;2024-01-16T10:35:07;97507.31;;;1.47;100.00
113;BME280;45999;48.808;9.182;2024-01-16T10:37:51;97512.78;;;1.37;95.72
113;BME280;45999;48.808;9.182;2024-01-16T10:40:24;97507.41;;;1.90;95.87
113;BME280;45999;48.808;9.182;2024-01-16T10:43:04;97503.91;;;2.12;94.33
113;BME280;45999;48.808;9.182;2024-01-16T10:45:33;97502.66;;;1.94;97.23
113;BME280;45999;48.808;9.182;2024-01-16T10:48:07;97505.03;;;2.18;92.99
113;BME280;45999;48.808;9.182;2024-01-16T10:50:39;97509.72;;;2.08;95.59
113;BME280;45999;48.808;9.182;2024-01-16T10:53:07;97514.22;;;2.14;96.22
113;BME280;45999;48.808;9.182;2024-01-16T10:58:09;97510.56;;;2.52;92.59
113;BME280;45999;48.808;9.182;2024-01-16T11:00:39;97491.09;;;2.17;90.77
113;BME280;45999;48.808;9.182;2024-01-16T11:03:10;97489.56;;;2.37;92.92
113;BME280;45999;48.808;9.182;2024-01-16T11:05:37;97485.09;;;1.94;95.97
113;BME280;45999;48.808;9.182;2024-01-16T11:08:05;97482.66;;;1.93;97.97
113;BME280;45999;48.808;9.182;2024-01-16T11:10:32;97480.66;;;1.66;98.60
113;BME280;45999;48.808;9.182;2024-01-16T11:13:02;97483.72;;;1.84;96.91
113;BME280;45999;48.808;9.182;2024-01-16T11:15:29;97486.41;;;2.13;94.96
113;BME280;45999;48.808;9.182;2024-01-16T11:17:56;97478.13;;;1.87;94.87
113;BME280;45999;48.808;9.182;2024-01-16T11:20:23;97471.91;;;1.88;94.92
113;BME280;45999;48.808;9.182;2024-01-16T11:22:50;97469.00;;;1.83;95.14
113;BME280;45999;48.808;9.182;2024-01-16T11:25:19;97461.41;;;1.88;96.21
113;BME280;45999;48.808;9.182;2024-01-16T11:27:46;97459.72;;;2.24;91.80
113;BME280;45999;48.808;9.182;2024-01-16T11:30:30;97456.84;;;2.04;94.38
113;BME280;45999;48.808;9.182;2024-01-16T11:32:56;97449.13;;;2.17;93.32
113;BME280;45999;48.808;9.182;2024-01-16T11:35:36;97445.03;;;1.71;95.04
113;BME280;45999;48.808;9.182;2024-01-16T11:38:08;97442.91;;;1.75;95.35
113;BME280;45999;48.808;9.182;2024-01-16T11:40:35;97440.44;;;1.73;94.54
113;BME280;45999;48.808;9.182;2024-01-16T11:45:58;97427.00;;;2.05;91.50
113;BME280;45999;48.808;9.182;2024-01-16T11:48:25;97419.31;;;2.04;92.86
113;BME280;45999;48.808;9.182;2024-01-16T11:50:53;97423.00;;;1.80;94.19
113;BME280;45999;48.808;9.182;2024-01-16T11:53:38;97420.66;;;2.00;95.94
113;BME280;45999;48.808;9.182;2024-01-16T11:56:23;97416.78;;;1.96;97.23
113;BME280;45999;48.808;9.182;2024-01-16T11:59:26;97402.59;;;2.05;97.91
113;BME280;45999;48.808;9.182;2024-01-16T12:01:59;97399.22;;;2.25;94.58
113;BME280;45999;48.808;9.182;2024-01-16T12:04:28;97396.66;;;2.46;91.76
113;BME280;45999;48.808;9.182;2024-01-16T12:06:58;97396.25;;;2.14;89.62
113;BME280;45999;48.808;9.182;2024-01-16T12:09:28;97394.72;;;2.19;89.80
113;BME280;45999;48.808;9.182;2024-01-16T12:11:58;97391.03;;;2.49;90.17
113;BME280;45999;48.808;9.182;2024-01-16T12:14:26;97385.44;;;2.38;89.51
113;BME280;45999;48.808;9.182;2024-01-16T12:17:14;97370.03;;;2.28;86.65
113;BME280;45999;48.808;9.182;2024-01-16T12:19:43;97379.16;;;2.18;88.16
113;BME280;45999;48.808;9.182;2024-01-16T12:22:12;97370.50;;;2.03;88.90
113;BME280;45999;48.808;9.182;2024-01-16T12:24:40;97365.78;;;2.27;88.31
113;BME280;45999;48.808;9.182;2024-01-16T12:27:07;97358.94;;;2.12;90.62
113;BME280;45999;48.808;9.182;2024-01-16T12:29:35;97357.59;;;2.01;90.90
113;BME280;45999;48.808;9.182;2024-01-16T12:32:06;97356.50;;;2.10;89.33
113;BME280;45999;48.808;9.182;2024-01-16T12:34:34;97355.75;;;2.02;90.19
113;BME280;45999;48.808;9.182;2024-01-16T12:37:04;97349.16;;;2.20;88.55
113;BME280;45999;48.808;9.182;2024-01-16T12:39:31;97347.38;;;2.06;89.07
113;BME280;45999;48.808;9.182;2024-01-16T12:41:58;97346.44;;;1.99;82.87
113;BME280;45999;48.808;9.182;2024-01-16T12:44:28;97348.44;;;2.12;82.71
113;BME280;45999;48.808;9.182;2024-01-16T12:46:55;97343.56;;;2.09;83.53
113;BME280;45999;48.808;9.182;2024-01-16T12:49:23;97352.16;;;2.03;82.64
113;BME280;45999;48.808;9.182;2024-01-16T12:51:50;97350.16;;;2.05;84.62
113;BME280;45999;48.808;9.182;2024-01-16T12:54:17;97345.91;;;2.18;82.62
113;BME280;45999;48.808;9.182;2024-01-16T12:56:47;97348.47;;;2.33;85.05
113;BME280;45999;48.808;9.182;2024-01-16T12:59:14;97339.22;;;2.16;82.19
113;BME280;45999;48.808;9.182;2024-01-16T13:01:43;97324.72;;;2.20;85.16
113;BME280;45999;48.808;9.182;2024-01-16T13:04:12;97337.22;;;2.18;84.07
113;BME280;45999;48.808;9.182;2024-01-16T13:06:39;97332.31;;;2.29;84.46
113;BME280;45999;48.808;9.182;2024-01-16T13:09:11;97324.63;;;2.28;81.83
113;BME280;45999;48.808;9.182;2024-01-16T13:11:54;97324.53;;;2.21;85.58
113;BME280;45999;48.808;9.182;2024-01-16T13:14:23;97325.72;;;2.19;84.01
113;BME280;45999;48.808;9.182;2024-01-16T13:16:51;97319.78;;;2.10;85.20
113;BME280;45999;48.808;9.182;2024-01-16T13:19:21;97318.19;;;1.95;84.07
113;BME280;45999;48.808;9.182;2024-01-16T13:21:48;97314.97;;;2.14;80.26
113;BME280;45999;48.808;9.182;2024-01-16T13:24:15;97307.13;;;2.14;81.37
113;BME280;45999;48.808;9.182;2024-01-16T13:26:42;97311.09;;;2.10;80.94